createdAt,value
2018-08-25T00:08:49.087Z,21.80
2018-08-25T00:11:18.674Z,21.70
2018-08-25T00:16:17.390Z,21.70
2018-08-25T00:18:46.939Z,21.70
2018-08-25T00:23:45.871Z,21.70
2018-08-25T00:26:15.424Z,21.70
2018-08-25T00:28:44.940Z,21.60
2018-08-25T00:31:19.869Z,21.60
2018-08-25T00:36:18.500Z,21.60
2018-08-25T00:38:48.066Z,21.60
2018-08-25T00:41:17.604Z,21.60
2018-08-25T00:43:47.159Z,21.60
2018-08-25T00:51:15.295Z,21.50
2018-08-25T00:53:44.841Z,21.50
2018-08-25T00:58:43.685Z,21.50
2018-08-25T01:03:42.332Z,21.50
2018-08-25T01:06:11.924Z,21.50
2018-08-25T01:11:10.562Z,21.50
2018-08-25T01:13:40.120Z,21.50
2018-08-25T01:18:38.959Z,21.40
2018-08-25T01:21:08.495Z,21.40
2018-08-25T01:26:07.226Z,21.40
2018-08-25T01:36:05.067Z,21.40
2018-08-25T01:38:34.620Z,21.40
2018-08-25T01:41:04.164Z,21.40
2018-08-25T01:43:33.713Z,21.40
2018-08-25T01:48:32.351Z,21.30
2018-08-25T01:53:31.009Z,21.30
2018-08-25T01:56:00.578Z,21.30
2018-08-25T02:00:59.269Z,21.30
2018-08-25T02:03:34.439Z,21.30
2018-08-25T02:06:09.478Z,21.30
2018-08-25T02:13:54.210Z,21.20
2018-08-25T02:26:48.952Z,21.20
2018-08-25T02:29:24.031Z,21.20
2018-08-25T02:31:59.221Z,21.20
2018-08-25T02:34:34.355Z,21.20
2018-08-25T02:37:09.524Z,21.20
2018-08-25T02:39:44.689Z,21.10
2018-08-25T02:50:04.225Z,21.10
2018-08-25T02:52:39.376Z,21.10
2018-08-25T02:55:14.444Z,21.10
2018-08-25T02:57:49.597Z,21.10
2018-08-25T03:05:34.756Z,21.10
2018-08-25T03:10:44.644Z,21.10
2018-08-25T03:15:54.963Z,21.00
2018-08-25T03:26:15.217Z,21.00
2018-08-25T03:28:50.243Z,21.00
2018-08-25T03:31:25.403Z,21.00
2018-08-25T03:34:00.459Z,20.90
2018-08-25T03:36:35.570Z,20.90
2018-08-25T03:39:12.109Z,21.00
2018-08-25T03:44:22.536Z,20.90
2018-08-25T03:49:32.617Z,20.90
2018-08-25T03:54:42.612Z,20.90
2018-08-25T04:02:27.507Z,20.80
2018-08-25T04:07:37.418Z,20.90
2018-08-25T04:10:12.493Z,20.90
2018-08-25T04:15:22.328Z,20.80
2018-08-25T04:20:32.204Z,20.70
2018-08-25T04:28:16.803Z,20.80
2018-08-25T04:33:26.714Z,20.70
2018-08-25T04:46:21.411Z,20.70
2018-08-25T04:54:06.032Z,20.70
2018-08-25T04:59:15.852Z,20.70
2018-08-25T05:07:00.946Z,20.60
2018-08-25T05:14:45.672Z,20.60
2018-08-25T05:19:55.633Z,20.60
2018-08-25T05:25:06.580Z,20.60
2018-08-25T05:30:16.655Z,20.60
2018-08-25T05:35:26.582Z,20.70
2018-08-25T05:48:22.871Z,20.80
2018-08-25T05:56:08.110Z,20.90
2018-08-25T05:58:43.285Z,21.00
2018-08-25T06:06:28.196Z,21.10
2018-08-25T06:14:13.844Z,21.00
2018-08-25T06:16:48.892Z,21.00
2018-08-25T06:21:59.001Z,21.10
2018-08-25T06:27:08.687Z,21.10
2018-08-25T06:29:44.148Z,21.00
2018-08-25T06:32:19.096Z,21.00
2018-08-25T06:52:57.749Z,21.00
2018-08-25T07:00:42.411Z,20.90
2018-08-25T07:08:27.180Z,20.90
2018-08-25T07:13:37.190Z,20.90
2018-08-25T07:18:47.305Z,20.90
2018-08-25T07:26:32.560Z,21.00
2018-08-25T07:31:42.794Z,21.00
2018-08-25T07:34:17.864Z,21.00
2018-08-25T07:42:02.828Z,21.00
2018-08-25T07:47:13.144Z,21.10
2018-08-25T07:49:48.209Z,21.10
2018-08-25T07:52:23.271Z,21.20
2018-08-25T07:54:58.357Z,21.10
2018-08-25T07:57:33.788Z,21.20
2018-08-25T08:02:43.601Z,21.20
2018-08-25T08:07:53.460Z,21.30
2018-08-25T08:13:03.292Z,21.50
2018-08-25T08:18:13.114Z,21.40
2018-08-25T08:20:48.285Z,21.40
2018-08-25T08:23:23.457Z,21.50
2018-08-25T08:33:42.660Z,21.50
2018-08-25T08:44:01.940Z,20.50
2018-08-25T08:46:37.487Z,20.40
2018-08-25T08:51:47.345Z,21.00
2018-08-25T09:02:06.997Z,21.30
2018-08-25T09:04:42.205Z,21.30
2018-08-25T09:09:52.101Z,21.30
2018-08-25T09:12:27.156Z,21.30
2018-08-25T09:20:11.810Z,21.20
2018-08-25T09:25:22.151Z,21.30
2018-08-25T09:33:07.118Z,21.20
2018-08-25T09:40:51.687Z,21.20
2018-08-25T09:46:01.584Z,21.20
2018-08-25T10:01:38.252Z,21.20
2018-08-25T10:09:22.868Z,21.20
2018-08-25T10:14:32.694Z,21.30
2018-08-25T10:17:07.772Z,21.30
2018-08-25T10:24:54.819Z,21.30
2018-08-25T10:30:04.777Z,21.20
2018-08-25T10:32:40.278Z,21.20
2018-08-25T10:35:15.428Z,21.20
2018-08-25T10:40:25.330Z,21.20
2018-08-25T10:43:00.510Z,21.20
2018-08-25T10:45:35.915Z,21.20
2018-08-25T10:50:46.023Z,21.20
2018-08-25T10:53:21.208Z,21.20
2018-08-25T10:55:56.378Z,21.10
2018-08-25T11:03:40.994Z,21.10
2018-08-25T11:08:50.810Z,21.10
2018-08-25T11:11:26.410Z,21.10
2018-08-25T11:21:45.833Z,21.10
2018-08-25T11:24:20.916Z,21.10
2018-08-25T11:29:30.932Z,21.10
2018-08-25T11:34:41.715Z,21.10
2018-08-25T13:06:37.875Z,21.10
2018-08-25T13:11:37.263Z,21.30
2018-08-25T13:16:36.192Z,21.40
2018-08-25T13:21:35.081Z,21.40
2018-08-25T13:24:04.644Z,21.40
2018-08-25T13:26:34.195Z,21.50
2018-08-25T13:29:03.778Z,21.40
2018-08-25T13:31:33.323Z,21.40
2018-08-25T13:34:02.913Z,21.40
2018-08-25T13:39:02.089Z,21.30
2018-08-25T13:41:31.633Z,21.30
2018-08-25T13:44:01.203Z,21.30
2018-08-25T14:03:55.152Z,21.30
2018-08-25T14:08:53.832Z,21.30
2018-08-25T14:11:23.376Z,21.20
2018-08-25T14:13:52.996Z,21.20
2018-08-25T14:16:22.621Z,21.20
2018-08-25T14:18:52.114Z,21.20
2018-08-25T14:26:19.926Z,21.20
2018-08-25T14:36:17.269Z,21.30
2018-08-25T14:38:46.658Z,21.30
2018-08-25T14:56:11.231Z,21.30
2018-08-25T15:01:09.906Z,21.30
2018-08-25T15:03:39.522Z,21.20
2018-08-25T15:08:38.151Z,21.20
2018-08-25T15:16:06.106Z,21.10
2018-08-25T15:23:35.398Z,21.10
2018-08-25T15:33:35.444Z,21.20
2018-08-25T15:48:34.804Z,21.10
2018-08-25T15:51:04.381Z,21.10
2018-08-25T15:53:33.940Z,21.00
2018-08-25T15:56:03.512Z,21.00
2018-08-25T15:58:33.072Z,21.00
2018-08-25T16:06:02.960Z,21.00
2018-08-25T16:20:58.191Z,21.00
2018-08-25T16:25:56.874Z,21.00
2018-08-25T16:33:25.182Z,21.00
2018-08-25T16:35:55.444Z,21.00
2018-08-25T16:40:54.519Z,21.00
2018-08-25T16:45:53.433Z,21.00
2018-08-25T16:50:52.149Z,21.00
2018-08-25T16:53:21.697Z,21.00
2018-08-25T16:58:21.264Z,20.90
2018-08-25T17:00:51.153Z,21.00
2018-08-25T17:03:20.723Z,20.90
2018-08-25T17:05:52.905Z,21.00
2018-08-25T17:08:22.465Z,20.90
2018-08-25T17:10:52.019Z,20.90
2018-08-25T17:13:21.592Z,20.90
2018-08-25T17:20:49.374Z,20.90
2018-08-25T17:23:18.912Z,20.90
2018-08-25T17:30:51.528Z,21.00
2018-08-25T17:48:17.121Z,20.90
2018-08-25T17:50:46.673Z,20.90
2018-08-25T17:55:45.841Z,20.80
2018-08-25T18:05:43.383Z,20.80
2018-08-25T18:10:42.037Z,20.70
2018-08-25T18:13:11.589Z,20.70
2018-08-25T18:18:10.654Z,20.70
2018-08-25T18:23:09.850Z,20.70
2018-08-25T18:25:39.423Z,20.70
2018-08-25T18:28:10.837Z,20.70
2018-08-25T18:30:41.014Z,20.70
2018-08-25T18:33:11.264Z,20.70
2018-08-25T18:35:41.164Z,20.60
2018-08-25T18:40:41.177Z,20.60
2018-08-25T18:43:11.536Z,20.60
2018-08-25T18:45:41.420Z,20.60
2018-08-25T18:48:11.751Z,20.60
2018-08-25T18:50:41.569Z,20.60
2018-08-25T18:53:11.794Z,20.60
2018-08-25T18:55:42.457Z,20.60
2018-08-25T18:58:12.070Z,20.50
2018-08-25T19:00:42.169Z,20.50
2018-08-25T19:10:41.380Z,20.50
2018-08-25T19:13:10.938Z,20.50
2018-08-25T19:18:09.975Z,20.50
2018-08-25T19:25:37.765Z,20.50
2018-08-25T19:30:36.527Z,20.40
2018-08-25T19:33:06.711Z,20.40
2018-08-25T19:35:36.247Z,20.40
2018-08-25T19:38:06.235Z,20.40
2018-08-25T19:43:05.210Z,20.40
2018-08-25T19:50:33.149Z,20.40
2018-08-25T19:53:02.743Z,20.30
2018-08-25T20:03:00.054Z,20.30
2018-08-25T20:05:29.678Z,20.30
2018-08-25T20:07:59.511Z,20.20
2018-08-25T20:10:29.066Z,20.30
2018-08-25T20:12:58.646Z,20.30
2018-08-25T20:15:28.207Z,20.30
2018-08-25T20:17:58.064Z,20.30
2018-08-25T20:22:57.339Z,20.30
2018-08-25T20:30:25.714Z,20.30
2018-08-25T20:37:53.512Z,20.10
2018-08-25T20:42:52.177Z,20.20
2018-08-25T20:55:18.841Z,20.10
2018-08-25T21:02:46.560Z,20.10
2018-08-25T21:07:45.492Z,20.10
2018-08-25T21:32:42.757Z,20.00
2018-08-25T21:35:12.332Z,20.00
2018-08-25T21:40:11.014Z,20.00
2018-08-25T21:45:09.655Z,20.00
2018-08-25T21:47:39.195Z,20.00
2018-08-25T21:50:08.746Z,19.90
2018-08-25T21:52:38.287Z,19.90
2018-08-25T22:00:07.726Z,19.90
2018-08-25T22:05:06.600Z,19.90
2018-08-25T22:15:04.432Z,19.90
2018-08-25T22:20:03.652Z,19.80
2018-08-25T22:22:33.191Z,19.80
2018-08-25T22:25:02.741Z,19.80
2018-08-25T22:27:32.309Z,19.80
2018-08-25T22:30:02.860Z,20.00
2018-08-25T22:39:59.726Z,19.60
2018-08-25T22:44:58.357Z,19.50
2018-08-25T22:55:00.921Z,20.50
2018-08-25T22:57:30.456Z,18.80
2018-08-25T23:02:33.184Z,19.30
2018-08-25T23:07:34.243Z,19.60
2018-08-25T23:10:04.762Z,19.20
2018-08-25T23:12:34.988Z,19.80
2018-08-25T23:15:04.553Z,19.70
2018-08-25T23:17:34.088Z,19.50
2018-08-25T23:22:32.754Z,19.50
2018-08-25T23:25:02.316Z,19.60
2018-08-25T23:39:57.484Z,19.70
2018-08-25T23:42:27.125Z,19.50
2018-08-25T23:47:25.791Z,19.40
2018-08-25T23:52:24.440Z,19.50
2018-08-25T23:54:53.969Z,19.40
2018-08-25T23:59:52.602Z,19.40
